Air Navigation Services of Czech Republic  
Last data update:  21.01.2019 05:04:08 UTC Česká verze
   METEO Page displayed:  21.01.2019 05:05:04 UTC  
help
METAR EDDB 210450Z 24006KT 9999 OVC007 M03/M05 Q1023 TEMPO BKN004=
METAR EDDC 210450Z 05002KT 0900 R22/1500VP2000N FZFG FEW001 BKN007 M09/M09 Q1022 TEMPO 1600 BCFG BKN003=
METAR EDDE 210450Z 36002KT 7000 NSC M08/M08 Q1021 NOSIG=
METAR EDDF 210450Z 02009KT CAVOK M05/M08 Q1022 NOSIG=
METAR EDDM 210450Z 03004KT 340V060 4700 BR FEW009 OVC049 M04/M06 Q1018 TEMPO BKN009=
METAR EDDN 210450Z VRB01KT 9999 BKN027 M08/M09 Q1020=
METAR EDDP 210450Z 12004KT 3000 0800W R26L/P2000N R26R/P2000N FZFG BR NSC M09/M10 Q1022 TEMPO 0700 FZFG=
METAR EDDT 210450Z 21006KT 180V240 4800 BR FEW003 OVC004 M04/M05 Q1023 R88/19//95 TEMPO 5000 BR BKN005=
METAR EDQM NIL
METAR EPBY 210500Z 25006KT 8000 NSC M06/M07 Q1021 =
METAR EPGD 210500Z 26009KT 7000 -SN FEW003 BKN007 M01/M01 Q1018 RESN R11/550195 =
METAR EPKK 210500Z 02002KT 1400 R25/2000N BR BKN003 M10/M12 Q1022 =
METAR EPKT 210500Z 33002KT 1700 BR OVC002 M07/M08 Q1021 =
METAR EPLL 210500Z 25007KT 2700 BR OVC002 M05/M06 Q1021 =
METAR EPPO 210500Z 23001KT 7000 OVC004 M04/M05 Q1022 =
METAR EPRZ 210500Z 25003KT 220V290 1000 R27/2000N BR OVC002 M07/M07 Q1021 =
METAR EPWA 210500Z 26004KT 220V280 7000 BKN007 M02/M04 Q1021 NOSIG=
METAR EPWR 210500Z 33005KT 300V360 7000 OVC009 M04/M06 Q1023 =
METAR LHBP 210500Z VRB02KT 2500 FZBCFG BR NSC M10/M10 Q1020 R88/29//95 NOSIG=
METAR LHSM 210445Z 32003KT 9999 FEW030 M03/M05 Q1021=
METAR LKBC 210500Z AUTO 00000KT 6000 NCD M07/M08 Q1018=
METAR LKCV 210500Z 12002KT 6000 NSC M09/M11 Q1021 NOSIG RMK WHT WHT=
METAR LKKB 210500Z 00000KT 7000 NSC M08/M10 Q1021 NOSIG RMK WHT WHT=
METAR LKKU NIL
METAR LKKV 210500Z VRB02KT 9999 BKN027 M06/M08 Q1018 R29/////// RMK REG QNH 1015=
METAR LKLN 210500Z AUTO 05003KT 340V090 9999 OVC037 M02/M05 Q1020=
METAR LKMT 210500Z 05005KT 1500 BR OVC003 M05/M06 Q1022 R04/31//95 NOSIG RMK REG QNH 1015=
METAR LKNA 210500Z 34004KT CAVOK M07/M09 Q1019 NOSIG RMK BLU BLU=
METAR LKPD 210500Z 00000KT 8000 NSC M10/M12 Q1021 NOSIG RMK BLU=
METAR LKPR 210500Z 25002KT 6000 NSC M08/M09 Q1020 NOSIG RMK REG QNH 1015=
METAR LKTB 210500Z 34003KT CAVOK M06/M08 Q1021 NOSIG RMK REG QNH 1015=
METAR LKVO NIL
METAR LOWI 210450Z VRB01KT CAVOK M09/M10 Q1018 R08/19//95 NOSIG=
METAR LOWL 210450Z 35002KT 9999 FEW035 M08/M09 Q1020 NOSIG=
METAR LOWS 210450Z VRB01KT 8000 FEW012 SCT028 BKN040 M03/M05 Q1018 NOSIG=
METAR LOWW 210450Z 34006KT CAVOK M05/M08 Q1021 R88/19//95 NOSIG=
METAR LZIB 210500Z 23003KT CAVOK M05/M07 Q1020 NOSIG=
METAR LZKZ 210500Z 02016KT CAVOK M05/M09 Q1019=
METAR LZMC 210400Z 00000KT 3000 BR NSC M09/M10 Q1021=
METAR LZPP 210500Z 03004KT CAVOK M08/M10 Q1020=
METAR LZSL 210500Z 00000KT CAVOK M11/M13 Q1020=
METAR LZTT 210500Z 27005KT CAVOK M14/M15 Q1018=
METAR LZZI 210500Z 10006KT 4100 BR NSC M11/M12 Q1021=